ADDS METAR Data INFO
IDs: Format: Raw Decoded Include TAF

Data at: 2311 UTC 16 Jan 2018

KTIP 162255Z AUTO 27010KT 7SM -SN OVC015 M12/M15 A3055 RMK AO2 T11221146
KTIP 162235Z AUTO 27011KT 10SM OVC015 M12/M15 A3055 RMK AO2 T11221147
KTIP 162215Z AUTO 27010KT 10SM BKN015 BKN037 OVC055 M12/M15 A3055 RMK AO2 T11211146
KTIP 162155Z AUTO 27009KT 10SM OVC055 M12/M14 A3055 RMK AO2 T11201145
KTIP 162135Z AUTO 26010KT 10SM SCT005 SCT040 BKN055 M12/M15 A3054 RMK AO2 T11241148
KTIP 162115Z AUTO 26010KT 5SM -SN BKN005 BKN028 OVC038 M12/M15 A3054 RMK AO2 T11211146
KTIP 162055Z AUTO 26011KT 1 3/4SM -SN BKN005 BKN010 OVC028 M12/M14 A3053 RMK AO2 T11201143
KTIP 162035Z AUTO 27012KT 2SM -SN SCT010 BKN014 OVC026 M12/M15 A3053 RMK AO2 T11211146
KTIP 162015Z AUTO 27012KT 3SM -SN BKN014 OVC029 M12/M14 A3053 RMK AO2 T11191145
KTIP 161955Z AUTO 28013KT 3SM -SN OVC014 M12/M15 A3052 RMK AO2 T11211147
KTIP 161935Z AUTO 28014G17KT 3SM -SN OVC014 M13/M15 A3052 RMK AO2 T11261152
KTIP 161915Z AUTO 28013KT 3SM HZ OVC012 M12/M15 A3052 RMK AO2 T11231150
KTIP 161855Z AUTO 28014KT 3SM HZ OVC012 M13/M15 A3052 RMK AO2 T11271154
KTIP 161835Z AUTO 27013KT 4SM -SN SCT008 OVC012 M13/M15 A3052 RMK AO2 T11261153
KTIP 161815Z AUTO 27014KT 3SM -SN SCT008 OVC014 M13/M16 A3052 RMK AO2 T11331161
KTIP 161755Z AUTO 27015G18KT 4SM HZ OVC008 M14/M17 A3052 RMK AO2 T11381166 11138 21177
KTIP 161735Z AUTO 27014KT 4SM HZ SCT008 OVC012 M14/M17 A3053 RMK AO2 T11441172
KTIP 161715Z AUTO 27015KT 3SM HZ SCT006 BKN015 OVC020 M14/M17 A3053 RMK AO2 T11431173
KTIP 161655Z AUTO 27014KT 3SM -SN SCT006 SCT010 OVC018 M14/M17 A3053 RMK AO2 T11451175
KTIP 161635Z AUTO 27013KT 3SM -SN OVC016 M15/M18 A3054 RMK AO2 T11501180
KTIP 161615Z AUTO 27013KT 3SM -SN BKN019 OVC025 M15/M18 A3054 RMK AO2 T11531182
KTIP 161555Z AUTO 28015KT 2 1/2SM -SN BKN020 OVC026 M15/M18 A3054 RMK AO2 T11551185
KTIP 161535Z AUTO 28014KT 3SM -SN SCT012 OVC020 M16/M19 A3054 RMK AO2 T11591186
KTIP 161515Z AUTO 27012KT 2 1/2SM -SN BKN014 OVC020 M16/M19 A3054 RMK AO2 T11621190
KTIP 161455Z AUTO 27014KT 2SM -SN OVC016 M17/M19 A3053 RMK AO2 T11661194
KTIP 161435Z AUTO 27013KT 2SM -SN OVC014 M17/M19 A3053 RMK AO2 T11661193
KTIP 161415Z AUTO 28014KT 2 1/2SM -SN SCT016 OVC022 M17/M20 A3053 RMK AO2 T11701196
KTIP 161355Z AUTO 27014G17KT 3SM -SN OVC022 M17/M20 A3052 RMK AO2 T11711198
KTIP 161335Z AUTO 27012KT 2 1/2SM -SN SCT012 SCT019 OVC025 M17/M20 A3052 RMK AO2 T11731199
KTIP 161315Z AUTO 27014G19KT 3SM -SN SCT012 SCT017 OVC025 M17/M20 A3051 RMK AO2 T11751200
KTIP 161255Z AUTO 26011KT 5SM -SN SCT007 BKN012 OVC025 M17/M20 A3052 RMK AO2 T11751201
KTIP 161235Z AUTO 27013KT 7SM -SN SCT007 OVC025 M17/M20 A3051 RMK AO2 T11751202
KTIP 161215Z AUTO 27011KT 7SM -SN OVC025 M17/M20 A3051 RMK AO2 T11751203
KTIP 161155Z AUTO 27012KT 10SM -SN OVC025 M18/M20 A3050 RMK AO2 T11771205 11170 21187
KTIP 161135Z AUTO 26013KT 7SM -SN OVC028 M18/M20 A3049 RMK AO2 T11771205
KTIP 161115Z AUTO 27011KT 10SM SCT024 OVC030 M18/M21 A3049 RMK AO2 T11801207
KTIP 161055Z AUTO 27010KT 10SM OVC026 M18/M21 A3048 RMK AO2 T11851212
KTIP 161035Z AUTO 27010KT 10SM SCT028 M19/M21 A3049 RMK AO2 T11861214
KTIP 161015Z AUTO 27010KT 10SM CLR M19/M21 A3049 RMK AO2 T11861215
KTIP 160955Z AUTO 26010KT 10SM CLR M18/M21 A3049 RMK AO2 T11851213
KTIP 160935Z AUTO 26008KT 10SM CLR M18/M21 A3049 RMK AO2 T11851213
KTIP 160915Z AUTO 26009KT 10SM CLR M18/M21 A3048 RMK AO2 T11831212
KTIP 160855Z AUTO 26011KT 10SM CLR M18/M21 A3048 RMK AO2 T11821211
KTIP 160835Z AUTO 26011KT 10SM CLR M18/M21 A3048 RMK AO2 T11811210
KTIP 160815Z AUTO 27012KT 10SM CLR M18/M21 A3047 RMK AO2 T11801210
KTIP 160755Z AUTO 26013KT 10SM CLR M18/M21 A3047 RMK AO2 T11791210
KTIP 160735Z AUTO 26012G16KT 10SM CLR M18/M21 A3047 RMK AO2 T11771208
KTIP 160715Z AUTO 27013KT 10SM CLR M17/M21 A3047 RMK AO2 T11751206
KTIP 160655Z AUTO 27012KT 10SM CLR M17/M20 A3047 RMK AO2 T11751205
KTIP 160635Z AUTO 27009KT 10SM CLR M17/M20 A3047 RMK AO2 T11731203
KTIP 160615Z AUTO 25010KT 10SM CLR M17/M20 A3047 RMK AO2 T11711200
KTIP 160555Z AUTO 26010KT 10SM CLR M17/M20 A3047 RMK AO2 T11701198 11138 21170 410231170
KTIP 160535Z AUTO 26010G14KT 10SM SCT009 M17/M19 A3046 RMK AO2 T11671195
KTIP 160515Z AUTO 26008KT 10SM CLR M17/M19 A3046 RMK AO2 T11661195
KTIP 160455Z AUTO 26010KT 10SM CLR M16/M19 A3045 RMK AO2 T11641193
KTIP 160435Z AUTO 27011KT 10SM CLR M16/M19 A3044 RMK AO2 T11611187
KTIP 160415Z AUTO 27011KT 10SM CLR M16/M19 A3045 RMK AO2 T11581187
KTIP 160355Z AUTO 26009KT 10SM CLR M16/M18 A3044 RMK AO2 T11561185
KTIP 160335Z AUTO 26009KT 10SM CLR M15/M18 A3044 RMK AO2 T11551184
KTIP 160315Z AUTO 27010KT 10SM CLR M15/M18 A3044 RMK AO2 T11531181
KTIP 160255Z AUTO 26010KT 10SM CLR M15/M18 A3044 RMK AO2 T11511180
KTIP 160235Z AUTO 25010KT 10SM CLR M15/M18 A3043 RMK AO2 T11501178
KTIP 160215Z AUTO 25010KT 10SM CLR M15/M18 A3043 RMK AO2 T11521180
KTIP 160155Z AUTO 25010KT 10SM CLR M15/M18 A3042 RMK AO2 T11511179
KTIP 160135Z AUTO 26010KT 10SM CLR M15/M18 A3042 RMK AO2 T11501180
KTIP 160115Z AUTO 26010KT 10SM CLR M15/M18 A3041 RMK AO2 T11501176
KTIP 160055Z AUTO 26008KT 10SM CLR M15/M17 A3041 RMK AO2 T11461172
KTIP 160035Z AUTO 26010KT 10SM CLR M14/M17 A3040 RMK AO2 T11451171
KTIP 160015Z AUTO 27011KT 10SM SCT031 M14/M17 A3039 RMK AO2 T11421175
KTIP 152355Z AUTO 27011KT 10SM CLR M14/M17 A3039 RMK AO2 T11381173 11079 21138
KTIP 152335Z AUTO 27013KT 10SM SCT013 M13/M17 A3038 RMK AO2 T11351167
KTIP 152315Z AUTO 27013KT 10SM SCT034 M13/M16 A3036 RMK AO2 T11311161
KTIP 152255Z AUTO 27013KT 10SM SCT028 OVC034 M12/M16 A3036 RMK AO2 T11251157
KTIP 152235Z AUTO 27015G18KT 10SM SCT028 OVC036 M12/M15 A3035 RMK AO2 T11211151
KTIP 152215Z AUTO 28015G21KT 7SM SCT007 SCT028 BKN032 M12/M15 A3033 RMK AO2 T11171150
KTIP 152155Z AUTO 28015KT 5SM HZ SCT007 SCT030 M11/M14 A3032 RMK AO2 T11111144
KTIP 152135Z AUTO 27017G22KT 7SM SCT011 SCT017 BKN030 M11/M14 A3031 RMK AO2 T11061138
KTIP 152115Z AUTO 27018G23KT 3SM -SN BKN013 BKN017 BKN028 M10/M13 A3029 RMK AO2 T11031134
KTIP 152055Z AUTO 27017G20KT 7SM BKN013 BKN028 M10/M14 A3028 RMK AO2 T10971137
KTIP 152035Z AUTO 28012G18KT 5SM HZ SCT007 BKN013 M09/M12 A3026 RMK AO2 T10951124
KTIP 152015Z AUTO 28017KT 7SM BKN013 M09/M13 A3026 RMK AO2 T10931129
KTIP 151955Z AUTO 27017G20KT 5SM HZ OVC011 M09/M12 A3026 RMK AO2 T10921125
KTIP 151935Z AUTO 27014G20KT 2 1/2SM -SN OVC011 M09/M12 A3025 RMK AO2 T10901119
KTIP 151915Z AUTO 28013KT 5SM -SN BKN011 M09/M12 A3024 RMK AO2 T10911122
KTIP 151855Z AUTO 29018KT 4SM HZ BKN007 BKN012 M09/M12 A3023 RMK AO2 T10901122
KTIP 151835Z AUTO 28016KT 2 1/2SM -SN BKN007 BKN012 M08/M11 A3022 RMK AO2 T10851113
KTIP 151815Z AUTO 28016G21KT 2 1/2SM BR BKN007 OVC042 M08/M11 A3021 RMK AO2 VIS 1 1/2V5 T10821107
KTIP 151755Z AUTO 27016G19KT 10SM OVC042 M08/M11 A3022 RMK AO2 T10801106 11023 21080
KTIP 151735Z AUTO 28017KT 5SM HZ OVC042 M07/M10 A3022 RMK AO2 T10731097
KTIP 151715Z AUTO 28016G22KT 4SM -SN SCT012 SCT019 OVC044 M07/M09 A3022 RMK AO2 T10661088
KTIP 151655Z AUTO 27018G23KT 3SM -SN OVC015 M06/M08 A3021 RMK AO2 T10601080
KTIP 151635Z AUTO 28018G24KT 3SM -SN OVC013 M05/M07 A3020 RMK AO2 T10481067
KTIP 151615Z AUTO 27015G21KT 3SM -SN OVC009 M03/M05 A3019 RMK AO2 T10341049
KTIP 151555Z AUTO 27012KT 4SM -SN BKN007 OVC011 M02/M03 A3018 RMK AO2 T10251035
KTIP 151535Z AUTO 24009KT 5SM -SN OVC007 M03/M04 A3018 RMK AO2 T10321040
KTIP 151515Z AUTO 22011KT 5SM -SN OVC007 M04/M05 A3017 RMK AO2 T10371046
KTIP 151455Z AUTO 22012KT 7SM -SN OVC007 M04/M05 A3016 RMK AO2 T10401050
KTIP 151435Z AUTO 22013KT 7SM OVC009 M04/M05 A3016 RMK AO2 T10411052
KTIP 151415Z AUTO 21011KT 10SM OVC009 M04/M06 A3015 RMK AO2 T10451056
KTIP 151355Z AUTO 21011KT 10SM OVC009 M05/M06 A3015 RMK AO2 T10461059
KTIP 151335Z AUTO 21009G15KT 10SM OVC009 M05/M06 A3015 RMK AO2 T10471060
KTIP 151315Z AUTO 21011KT 10SM OVC011 M05/M06 A3016 RMK AO2 T10481062
KTIP 151255Z AUTO 20011KT 10SM OVC011 M05/M06 A3015 RMK AO2 T10501064
KTIP 151235Z AUTO 19009KT 10SM OVC011 M05/M06 A3015 RMK AO2 T10531065
KTIP 151215Z AUTO 19011KT 10SM UP OVC011 M05/M07 A3015 RMK AO2 T10551067
KTIP 151155Z AUTO 18012KT 10SM -SN OVC011 M06/M07 A3015 RMK AO2 60001 70001 T10561067 11056 21067
KTIP 151135Z AUTO 18011KT 5SM -SN BKN014 BKN020 OVC025 M06/M07 A3015 RMK AO2 T10581068
KTIP 151115Z AUTO 17012KT 1 3/4SM -SN BKN014 OVC025 M06/M07 A3015 RMK AO2 T10601070